Aérodrome :
LOGIN :

S'inscrire | Disclaimer

   EN    FR    IT 

 










Légende :    VFR   VFR Marginal   IFR   IFR Intensif   IFR Très Intensif
Visi : 
Plafond : 
>= 8 km
>= 3000ft
5 à 8 km
1000 à 3000 ft
1500m à 5 km
500 à 1000 ft
800 à 1500m
200 à 500 ft
< 800m
< 200 ft
Symboles :   Orages  Brouillard  Fortes neiges  Fortes précipitations  Vent > 20 kt
SIGMETs :   Divers  Orages  Givrage  Turbulence  Onde Orograph.  Cendres Volcan.






- Altitude de l'aérodrome : 1649 ft
- Code IATA : HHN


EDFH - Frankfurt-Hahn Rhineland-Palatinate

DERNIER METAR :
  • 210020Z 13010KT 5000 BR BKN003 M01/M01 Q1010

METARs EXPIRÉS :
  • 202350Z 13011KT 110V180 7000 SCT002 BKN004 M00/M01 Q1010
  • 202320Z 11009KT 7000 SCT002 BKN004 M00/M01 Q1010
  • 202250Z 11008KT 9999 SCT002 BKN004 M00/M01 Q1011
  • 202220Z 11007KT 9999 SCT002 BKN004 M00/M01 Q1011
  • 202150Z 11006KT 070V180 9000 SCT002 BKN005 M00/M01 Q1011

TAF TAF EDFH
Valide du 21 à 00h jusqu'au 22 à 00h UTC


202300Z 2100/2124 12008KT 8000 SCT002 BKN005
TEMPO 2100/2112 4000 BR BKN004
PROB40
TEMPO 2100/2111 0200 FZFG BKN001
BECMG 2112/2115 SCT005
BECMG 2121/2124 0400 FZFG VV001



MET'MAP, la Météo Aéronautique d'un coup d'oeil ! - Copyright ORBIFLY Décembre 2007 - Disclaimer

ORBIFLY MET'MAP TEAM :

Programmation & Développement : Alexandra Zaïnal
Conception & Développement : Baudouin d'Aumeries
Co-Programmation & Développement : Marc-Olivier Méhu
Soutien technique & logistique : Manuel Goepfert

Contact : metmap@orbifly.com




SOURCES & CREDITS :

   NOAA